Dollar Bay, Michigan
Current Conditions -  °F | °C
As of 10:53 AM on Friday 28 Nov 2014 (Local Time) from KCMX Reporting Station
Overcast Overcast  
Wind Chill: -1°   Ceiling: 9500
Heat Index:   Visibility: 10mi
Dew Point:   Wind: 6mph
Humidity: 73%   Direction: 190°S
Pressure: 30.08"   Gusts: NA
Location:  47.12°N, 88.5°W
Report Text: KCMX 281553Z AUTO 19005KT 10SM OVC095 M13/M17 A3008 RMK AO2 SLP211 T11281167
Loading
Personal Weather Stations






























Interactive Weather Map New forecast layout! Learn more

10-Day Weather Forecast

Advertisements
Track Severe Weather on mobile